Share

Adjud, Romania

10:12 AM EEST on April 23, 2014 (GMT +0300)
Bacau (LRBC) Elev 607 ft | 46.52 °N, 26.91 °E | Change Station

Current weather conditions updated 12 minutes ago

Overcast
Overcast
55 °F
Feels Like 55 °F
N
2
Wind Variable Wind from Variable
Sunrise 6:11 AM
Sunset 8:08 PM
Moon Last Quarter

Today is forecast to be Warmer than yesterday.

Pressure 30.06 in
Visibility 3.1 miles
Clouds Overcast 300 ft
Dew Point 55 °F
Humidity 100%
Rainfall 0.00 in
Snow Depth Not available.
UV 1 out of 16
Pollen Not available.
Air Quality Not available.
Flu Activity Not available.
METAR LRBC 230700Z VRB02KT 5000 BR OVC003 13/13 Q1018

More Conditions Fewer Conditions

Pressure 30.06 in
Visibility 3.1 miles
Clouds Overcast 300 ft
Dew Point 55 °F
Humidity 100%
Rainfall 0.00 in
Snow Depth Not available.
UV 1 out of 16
Pollen Not available.
Air Quality Not available.
Flu Activity Not available.
METAR LRBC 230700Z VRB02KT 5000 BR OVC003 13/13 Q1018

More Conditions Fewer Conditions

10-Day Weather Forecast

Almanac

Astronomy

Apr. 23, 2014 Rise Set
Actual Time 6:11 AM EEST 8:08 PM EEST
Civil Twilight 5:39 AM EEST 8:40 PM EEST
Nautical Twilight 4:59 AM EEST 9:20 PM EEST
Astronomical Twilight 4:16 AM EEST 10:04 PM EEST
Moon 2:51 AM EEST 1:35 PM EEST
Length of Visible Light 15h 01m
Length of Day
13h 57m
Tomorrow will be 3m 1s longer.
Last Quarter, 39% of the Moon is Illuminated
Today
Last Quarter
Apr 29
New
May 6
First Quarter
May 14
Full
May 21
Last Quarter

Yesterday's Extremes

Country Highs Country Lows

Community

  • April Sunset
    April Sunset
  • Waiting..
    Waiting..
  • Sunset...
    Sunset...
  • Happy outdoor day
    Happy outdoor day
  • mystic afternoon....
    mystic afternoon....

WunderPhotos

Upload Photos

1,704,233 photos uploaded!

WunderBlogs® & News

By Dr. Jeff Masters
Director of Meteorology, Weather Underground
By Kari Strenfel
Meteorologist, Weather Underground
By Christopher C. Burt
Weather Historian, Weather Underground
April 23, 2014
April 22, 2014
April 22, 2014

Nearby

Snow Depth

Not available.

Coastal Water Temperatures

Place Temperature
No Stations Reporting

Earthquake Activity

City Distance Mag. Time & Date
No recent earthquake activity has been reported nearby.
Minimum magnitude displayed is 2.5.

Nearby Weather Stations

There are no personal weather stations in this area.

What do you think?

We're not finished. Please let us know what you like, what you don't like, and what you are still missing.